createdAt,value
2022-10-19T00:02:13.931Z,2.97
2022-10-19T00:05:02.301Z,3.05
2022-10-19T00:07:52.042Z,3.97
2022-10-19T00:10:42.003Z,3.35
2022-10-19T00:13:30.349Z,3.72
2022-10-19T00:16:20.121Z,3.40
2022-10-19T00:19:12.434Z,3.80
2022-10-19T00:22:00.731Z,4.78
2022-10-19T00:24:50.459Z,4.53
2022-10-19T00:27:38.951Z,5.50
2022-10-19T00:30:27.280Z,4.95
2022-10-19T00:33:20.861Z,4.85
2022-10-19T00:36:17.020Z,5.20
2022-10-19T00:39:07.565Z,4.78
2022-10-19T00:41:57.278Z,4.72
2022-10-19T00:45:14.325Z,4.43
2022-10-19T00:48:02.686Z,4.70
2022-10-19T00:50:53.852Z,3.80
2022-10-19T00:56:30.884Z,4.28
2022-10-19T00:59:22.361Z,4.00
2022-10-19T01:02:11.089Z,3.83
2022-10-19T01:05:00.404Z,3.13
2022-10-19T01:07:48.742Z,3.80
2022-10-19T01:10:44.481Z,4.45
2022-10-19T01:13:44.142Z,3.60
2022-10-19T01:16:43.668Z,3.22
2022-10-19T01:19:58.830Z,2.83
2022-10-19T01:23:06.954Z,1.90
2022-10-19T01:26:02.115Z,3.03
2022-10-19T01:29:04.761Z,3.10
2022-10-19T01:31:59.908Z,2.90
2022-10-19T01:34:53.103Z,3.00
2022-10-19T01:38:06.876Z,3.13
2022-10-19T01:40:58.949Z,2.97
2022-10-19T01:43:55.071Z,2.40
2022-10-19T01:46:45.973Z,2.55
2022-10-19T01:49:42.540Z,2.10
2022-10-19T01:52:33.563Z,2.65
2022-10-19T01:55:23.376Z,2.05
2022-10-19T01:58:15.061Z,2.97
2022-10-19T02:01:06.902Z,2.17
2022-10-19T02:03:56.083Z,3.05
2022-10-19T02:06:45.911Z,3.08
2022-10-19T02:09:34.247Z,2.72
2022-10-19T02:12:23.476Z,2.75
2022-10-19T02:15:16.008Z,2.95
2022-10-19T02:18:07.092Z,2.97
2022-10-19T02:23:45.136Z,3.20
2022-10-19T02:26:34.099Z,3.30
2022-10-19T02:29:22.455Z,3.53
2022-10-19T02:32:11.521Z,3.50
2022-10-19T02:34:59.860Z,3.25
2022-10-19T02:37:48.242Z,3.80
2022-10-19T02:40:43.608Z,3.72
2022-10-19T02:43:35.482Z,4.75
2022-10-19T02:46:30.069Z,4.72
2022-10-19T02:49:19.105Z,4.25
2022-10-19T02:52:09.622Z,5.32
2022-10-19T02:54:57.978Z,3.53
2022-10-19T02:57:47.765Z,5.28
2022-10-19T03:00:36.170Z,5.10
2022-10-19T03:03:24.566Z,4.40
2022-10-19T03:06:13.076Z,4.78
2022-10-19T03:09:01.363Z,4.80
2022-10-19T03:11:49.766Z,4.75
2022-10-19T03:14:39.426Z,5.30
2022-10-19T03:17:27.792Z,4.35
2022-10-19T03:20:16.215Z,4.68
2022-10-19T03:23:04.671Z,4.20
2022-10-19T03:25:53.006Z,5.35
2022-10-19T03:28:41.506Z,4.68
2022-10-19T03:31:31.246Z,4.80
2022-10-19T03:34:19.575Z,5.20
2022-10-19T03:37:08.686Z,5.07
2022-10-19T03:39:57.012Z,4.45
2022-10-19T03:42:45.347Z,4.20
2022-10-19T03:45:33.919Z,3.67
2022-10-19T03:48:23.596Z,2.30
2022-10-19T03:51:13.829Z,2.53
2022-10-19T03:54:03.872Z,2.60
2022-10-19T03:56:52.192Z,2.80
2022-10-19T03:59:40.509Z,2.00
2022-10-19T04:02:28.842Z,2.30
2022-10-19T04:05:18.624Z,1.83
2022-10-19T04:08:07.385Z,1.67
2022-10-19T04:11:00.363Z,1.77
2022-10-19T04:13:49.569Z,1.73
2022-10-19T04:16:37.896Z,2.13
2022-10-19T04:19:26.392Z,1.85
2022-10-19T04:22:16.976Z,1.40
2022-10-19T04:25:06.464Z,1.63
2022-10-19T04:27:54.789Z,1.60
2022-10-19T04:30:43.174Z,1.70
2022-10-19T04:33:31.629Z,1.40
2022-10-19T04:36:20.110Z,1.42
2022-10-19T04:39:09.959Z,1.38
2022-10-19T04:41:58.297Z,2.10
2022-10-19T04:44:46.636Z,1.80
2022-10-19T04:47:35.125Z,1.60
2022-10-19T04:50:23.741Z,1.20
2022-10-19T04:53:12.141Z,1.30
2022-10-19T04:56:05.401Z,1.10
2022-10-19T04:58:55.829Z,1.13
2022-10-19T05:01:46.328Z,0.95
2022-10-19T05:04:35.736Z,0.85
2022-10-19T05:07:24.149Z,1.33
2022-10-19T05:10:12.825Z,1.05
2022-10-19T05:13:03.453Z,0.80
2022-10-19T05:15:57.427Z,1.10
2022-10-19T05:18:49.575Z,1.58
2022-10-19T05:21:37.904Z,1.20
2022-10-19T05:24:26.390Z,1.30
2022-10-19T05:27:14.728Z,1.15
2022-10-19T05:30:06.436Z,1.35
2022-10-19T05:32:54.773Z,1.58
2022-10-19T05:35:43.088Z,1.50
2022-10-19T05:38:31.387Z,1.30
2022-10-19T05:41:19.940Z,1.23
2022-10-19T05:44:08.398Z,1.50
2022-10-19T05:46:58.088Z,1.60
2022-10-19T05:49:46.450Z,1.70
2022-10-19T05:52:34.798Z,2.17
2022-10-19T05:55:23.148Z,1.45
2022-10-19T05:58:11.477Z,1.42
2022-10-19T06:01:00.877Z,1.45
2022-10-19T06:03:53.228Z,1.73
2022-10-19T06:06:42.289Z,1.77
2022-10-19T06:09:35.864Z,2.30
2022-10-19T06:12:25.115Z,1.92
2022-10-19T06:15:13.605Z,2.25
2022-10-19T06:18:02.023Z,2.15
2022-10-19T06:20:51.685Z,1.77
2022-10-19T06:26:34.969Z,1.83
2022-10-19T06:29:23.376Z,1.73
2022-10-19T06:32:11.708Z,3.97
2022-10-19T06:35:00.058Z,1.60
2022-10-19T06:37:49.791Z,1.80
2022-10-19T06:40:38.119Z,1.42
2022-10-19T06:43:26.713Z,1.30
2022-10-19T06:46:20.191Z,1.83
2022-10-19T06:49:08.629Z,1.60
2022-10-19T06:51:56.912Z,1.17
2022-10-19T06:54:46.589Z,1.38
2022-10-19T06:57:35.290Z,1.50
2022-10-19T07:00:23.968Z,2.38
2022-10-19T07:03:12.365Z,1.88
2022-10-19T07:06:02.110Z,1.83
2022-10-19T07:08:50.468Z,1.20
2022-10-19T07:11:45.722Z,1.50
2022-10-19T07:14:38.695Z,1.70
2022-10-19T07:17:27.114Z,1.33
2022-10-19T07:20:15.533Z,1.63
2022-10-19T07:23:03.857Z,1.70
2022-10-19T07:25:53.308Z,1.10
2022-10-19T07:28:45.774Z,1.10
2022-10-19T07:31:34.246Z,1.10
2022-10-19T07:34:25.426Z,1.10
2022-10-19T07:37:16.546Z,1.00
2022-10-19T07:40:05.306Z,1.27
2022-10-19T07:42:53.660Z,1.10
2022-10-19T07:45:43.436Z,1.10
2022-10-19T07:48:32.019Z,0.70
2022-10-19T07:51:20.871Z,1.42
2022-10-19T07:54:09.770Z,2.20
2022-10-19T07:56:58.081Z,1.00
2022-10-19T07:59:46.442Z,1.67
2022-10-19T08:02:54.632Z,1.10
2022-10-19T08:05:44.452Z,0.70
2022-10-19T08:08:33.309Z,0.93
2022-10-19T08:11:23.587Z,1.00
2022-10-19T08:14:11.959Z,1.15
2022-10-19T08:17:00.583Z,0.70
2022-10-19T08:19:50.294Z,0.90
2022-10-19T08:22:38.629Z,1.02
2022-10-19T08:25:26.965Z,1.30
2022-10-19T08:28:15.352Z,0.80
2022-10-19T08:31:11.109Z,1.00
2022-10-19T08:33:59.777Z,1.10
2022-10-19T08:36:49.504Z,1.20
2022-10-19T08:39:37.805Z,1.13
2022-10-19T08:42:33.148Z,0.98
2022-10-19T08:45:38.521Z,1.23
2022-10-19T08:48:29.984Z,0.70
2022-10-19T08:51:18.411Z,0.77
2022-10-19T08:54:15.741Z,1.27
2022-10-19T08:57:14.954Z,1.10
2022-10-19T09:00:09.482Z,1.75
2022-10-19T09:03:06.102Z,0.75
2022-10-19T09:06:00.528Z,0.98
2022-10-19T09:08:51.181Z,1.05
2022-10-19T09:11:47.307Z,1.00
2022-10-19T09:14:40.137Z,0.90
2022-10-19T09:17:29.792Z,1.25
2022-10-19T09:20:21.319Z,0.80
2022-10-19T09:23:21.091Z,0.70
2022-10-19T09:26:15.700Z,0.70
2022-10-19T09:29:11.567Z,0.85
2022-10-19T09:32:02.175Z,0.88
2022-10-19T09:34:53.788Z,0.93
2022-10-19T09:37:47.022Z,0.52
2022-10-19T09:40:36.548Z,0.57
2022-10-19T09:43:25.486Z,0.70
2022-10-19T09:46:31.970Z,0.68
2022-10-19T09:49:20.625Z,1.05
2022-10-19T09:52:24.829Z,0.60
2022-10-19T09:55:27.537Z,0.90
2022-10-19T09:58:19.837Z,1.60
2022-10-19T10:01:08.151Z,0.68
2022-10-19T10:04:06.565Z,0.77
2022-10-19T10:06:57.676Z,1.35
2022-10-19T10:09:46.372Z,0.90
2022-10-19T10:12:36.625Z,0.90
2022-10-19T10:15:27.586Z,0.40
2022-10-19T10:18:18.225Z,0.80
2022-10-19T10:21:15.267Z,0.88
2022-10-19T10:24:06.530Z,1.42
2022-10-19T10:26:57.633Z,0.85
2022-10-19T10:32:52.352Z,0.82
2022-10-19T10:35:40.909Z,0.45
2022-10-19T10:38:34.860Z,0.70
2022-10-19T10:41:24.987Z,0.50
2022-10-19T10:44:20.275Z,0.50
2022-10-19T10:47:16.209Z,0.40
2022-10-19T10:50:07.769Z,0.50
2022-10-19T10:52:59.829Z,0.75
2022-10-19T10:55:56.872Z,0.40
2022-10-19T10:58:51.238Z,0.50
2022-10-19T11:01:43.771Z,0.35
2022-10-19T11:04:38.317Z,0.50
2022-10-19T11:07:29.079Z,0.28
2022-10-19T11:10:24.524Z,0.43
2022-10-19T11:13:21.718Z,0.40
2022-10-19T11:16:15.157Z,0.50
2022-10-19T11:22:17.720Z,0.28
2022-10-19T11:25:25.056Z,1.15
2022-10-19T11:28:25.310Z,1.75
2022-10-19T11:31:19.929Z,2.22
2022-10-19T11:34:28.606Z,0.68
2022-10-19T11:37:25.962Z,0.63
2022-10-19T11:40:22.488Z,0.40
2022-10-19T11:43:20.426Z,0.40
2022-10-19T11:46:17.370Z,0.40
2022-10-19T11:49:14.885Z,0.35
2022-10-19T11:52:09.781Z,0.70
2022-10-19T11:55:05.489Z,0.60
2022-10-19T11:58:00.588Z,0.52
2022-10-19T12:00:56.643Z,0.57
2022-10-19T12:04:12.173Z,0.60
2022-10-19T12:07:12.454Z,0.70
2022-10-19T12:10:09.672Z,0.35
2022-10-19T12:13:03.070Z,0.30
2022-10-19T12:15:55.127Z,0.30
2022-10-19T12:18:47.258Z,0.30
2022-10-19T12:21:39.316Z,0.63
2022-10-19T12:24:30.737Z,0.40
2022-10-19T12:27:24.471Z,0.30
2022-10-19T12:30:16.717Z,0.32
2022-10-19T12:33:15.588Z,0.38
2022-10-19T12:36:14.143Z,0.77
2022-10-19T12:39:11.261Z,0.43
2022-10-19T12:42:10.678Z,0.40
2022-10-19T12:45:18.474Z,0.60
2022-10-19T12:48:23.029Z,0.50
2022-10-19T12:51:15.056Z,0.40
2022-10-19T12:54:10.681Z,0.40
2022-10-19T12:57:01.710Z,1.63
2022-10-19T13:00:01.279Z,0.40
2022-10-19T13:03:00.967Z,0.32
2022-10-19T13:05:59.510Z,1.13
2022-10-19T13:08:56.304Z,0.50
2022-10-19T13:12:22.133Z,0.68
2022-10-19T13:15:56.086Z,0.52
2022-10-19T13:22:26.864Z,0.52
2022-10-19T13:25:33.525Z,0.30
2022-10-19T13:28:58.121Z,0.90
2022-10-19T13:31:46.514Z,0.65
2022-10-19T13:34:34.976Z,0.60
2022-10-19T13:37:24.763Z,0.50
2022-10-19T13:40:24.484Z,0.30
2022-10-19T13:43:20.728Z,0.73
2022-10-19T13:46:14.083Z,0.70
2022-10-19T13:49:32.767Z,0.40
2022-10-19T13:52:51.125Z,0.70
2022-10-19T13:56:03.218Z,0.40
2022-10-19T13:59:19.017Z,0.45
2022-10-19T14:02:51.984Z,0.70
2022-10-19T14:05:54.398Z,0.60
2022-10-19T14:09:15.183Z,1.00
2022-10-19T14:12:08.508Z,1.08
2022-10-19T14:14:57.627Z,0.88
2022-10-19T14:17:46.324Z,0.82
2022-10-19T14:20:42.431Z,0.90
2022-10-19T14:23:32.802Z,0.65
2022-10-19T14:26:24.397Z,0.70
2022-10-19T14:29:14.561Z,0.63
2022-10-19T14:32:03.390Z,0.70
2022-10-19T14:34:52.067Z,1.05
2022-10-19T14:37:45.238Z,0.50
2022-10-19T14:40:35.401Z,0.50
2022-10-19T14:43:26.963Z,1.17
2022-10-19T14:46:17.031Z,0.50
2022-10-19T14:49:06.899Z,0.80
2022-10-19T14:51:59.160Z,5.90
2022-10-19T14:54:51.906Z,6.68
2022-10-19T14:57:42.720Z,7.90
2022-10-19T15:00:34.051Z,14.50
2022-10-19T15:03:25.432Z,6.90
2022-10-19T15:06:20.551Z,18.42
2022-10-19T15:09:24.551Z,18.15
2022-10-19T15:12:28.958Z,12.05
2022-10-19T15:15:23.551Z,16.48
2022-10-19T15:18:43.475Z,15.45
2022-10-19T15:21:30.378Z,9.90
2022-10-19T15:24:28.326Z,4.38
2022-10-19T15:27:21.929Z,3.00
2022-10-19T15:30:26.821Z,2.00
2022-10-19T15:33:16.846Z,2.50
2022-10-19T15:36:08.561Z,1.08
2022-10-19T15:39:11.867Z,0.93
2022-10-19T15:42:35.800Z,1.27
2022-10-19T15:45:35.559Z,0.90
2022-10-19T15:48:50.061Z,0.60
2022-10-19T15:51:47.591Z,0.70
2022-10-19T15:54:35.947Z,0.65
2022-10-19T15:57:30.548Z,0.73
2022-10-19T16:00:20.304Z,0.82
2022-10-19T16:03:09.197Z,0.60
2022-10-19T16:05:58.943Z,0.55
2022-10-19T16:08:48.441Z,0.50
2022-10-19T16:11:36.795Z,0.70
2022-10-19T16:14:26.452Z,0.63
2022-10-19T16:17:15.924Z,1.25
2022-10-19T16:20:04.513Z,2.05
2022-10-19T16:22:54.251Z,0.90
2022-10-19T16:25:42.651Z,1.00
2022-10-19T16:28:30.953Z,0.73
2022-10-19T16:31:19.823Z,0.60
2022-10-19T16:34:08.143Z,0.70
2022-10-19T16:36:56.448Z,1.00
2022-10-19T16:39:46.126Z,0.90
2022-10-19T16:42:35.189Z,0.95
2022-10-19T16:45:23.656Z,0.52
2022-10-19T16:48:13.399Z,1.30
2022-10-19T16:51:24.795Z,1.40
2022-10-19T16:54:13.256Z,2.00
2022-10-19T16:57:07.143Z,2.03
2022-10-19T16:59:57.854Z,4.18
2022-10-19T17:02:46.632Z,3.60
2022-10-19T17:05:39.184Z,3.83
2022-10-19T17:08:36.714Z,3.20
2022-10-19T17:11:34.677Z,2.50
2022-10-19T17:14:24.382Z,2.08
2022-10-19T17:17:12.891Z,2.42
2022-10-19T17:20:01.280Z,1.90
2022-10-19T17:22:52.360Z,3.13
2022-10-19T17:28:35.969Z,1.90
2022-10-19T17:31:26.357Z,1.60
2022-10-19T17:34:15.024Z,2.08
2022-10-19T17:37:03.378Z,1.05
2022-10-19T17:39:52.046Z,1.60
2022-10-19T17:42:40.508Z,2.05
2022-10-19T17:45:28.831Z,1.83
2022-10-19T17:48:19.047Z,1.90
2022-10-19T17:51:09.092Z,2.40
2022-10-19T17:53:59.091Z,3.80
2022-10-19T17:56:47.463Z,5.40
2022-10-19T17:59:52.087Z,4.68
2022-10-19T18:02:41.602Z,7.03
2022-10-19T18:05:31.401Z,8.43
2022-10-19T18:08:19.783Z,18.52
2022-10-19T18:11:10.277Z,8.55
2022-10-19T18:14:00.458Z,4.07
2022-10-19T18:16:48.913Z,3.70
2022-10-19T18:19:37.217Z,4.53
2022-10-19T18:22:26.965Z,6.00
2022-10-19T18:25:21.775Z,6.65
2022-10-19T18:28:14.353Z,9.18
2022-10-19T18:31:07.365Z,10.40
2022-10-19T18:33:58.044Z,9.75
2022-10-19T18:36:46.638Z,14.73
2022-10-19T18:39:36.371Z,23.88
2022-10-19T18:42:24.821Z,17.15
2022-10-19T18:45:13.187Z,5.57
2022-10-19T18:48:01.509Z,5.97
2022-10-19T18:50:50.026Z,7.32
2022-10-19T18:53:38.516Z,8.10
2022-10-19T18:56:29.438Z,7.20
2022-10-19T18:59:18.709Z,6.30
2022-10-19T19:02:13.627Z,6.80
2022-10-19T19:05:11.307Z,8.45
2022-10-19T19:07:59.765Z,8.77
2022-10-19T19:10:48.202Z,8.18
2022-10-19T19:13:38.695Z,7.65
2022-10-19T19:16:28.462Z,9.68
2022-10-19T19:19:18.440Z,10.38
2022-10-19T19:22:08.640Z,11.48
2022-10-19T19:24:57.215Z,10.85
2022-10-19T19:27:45.509Z,11.63
2022-10-19T19:30:35.240Z,10.90
2022-10-19T19:33:23.678Z,11.00
2022-10-19T19:36:14.344Z,9.80
2022-10-19T19:39:04.891Z,9.95
2022-10-19T19:41:53.297Z,9.18
2022-10-19T19:44:41.605Z,8.63
2022-10-19T19:47:31.284Z,9.00
2022-10-19T19:50:19.689Z,9.02
2022-10-19T19:53:08.044Z,8.13
2022-10-19T19:55:56.435Z,9.68
2022-10-19T19:58:46.228Z,9.05
2022-10-19T20:01:36.671Z,8.43
2022-10-19T20:04:26.436Z,8.57
2022-10-19T20:07:14.762Z,9.77
2022-10-19T20:10:03.107Z,9.38
2022-10-19T20:12:51.483Z,9.73
2022-10-19T20:15:40.475Z,10.23
2022-10-19T20:18:28.799Z,9.25
2022-10-19T20:21:19.273Z,9.30
2022-10-19T20:24:08.475Z,8.50
2022-10-19T20:26:57.119Z,7.63
2022-10-19T20:29:45.438Z,10.35
2022-10-19T20:32:34.120Z,10.43
2022-10-19T20:35:22.627Z,10.57
2022-10-19T20:38:12.274Z,11.30
2022-10-19T20:41:02.011Z,12.73
2022-10-19T20:43:53.729Z,12.55
2022-10-19T20:46:42.090Z,13.45
2022-10-19T20:49:30.429Z,12.25
2022-10-19T20:52:18.810Z,12.15
2022-10-19T20:55:09.452Z,12.77
2022-10-19T20:57:57.805Z,11.85
2022-10-19T21:00:46.113Z,10.00
2022-10-19T21:03:34.576Z,10.07
2022-10-19T21:06:25.123Z,9.38
2022-10-19T21:09:15.074Z,10.43
2022-10-19T21:12:04.946Z,10.82
2022-10-19T21:14:53.263Z,11.02
2022-10-19T21:17:41.594Z,11.48
2022-10-19T21:20:29.942Z,10.68
2022-10-19T21:23:18.282Z,11.63
2022-10-19T21:26:06.750Z,11.00
2022-10-19T21:28:56.850Z,10.43
2022-10-19T21:31:48.785Z,9.98
2022-10-19T21:34:37.588Z,10.23
2022-10-19T21:37:25.917Z,9.68
2022-10-19T21:40:14.385Z,10.13
2022-10-19T21:43:02.778Z,9.90
2022-10-19T21:45:52.541Z,9.85
2022-10-19T21:48:41.059Z,10.40
2022-10-19T21:51:35.090Z,9.73
2022-10-19T21:54:25.637Z,9.75
2022-10-19T21:57:14.052Z,9.48
2022-10-19T22:00:02.377Z,9.32
2022-10-19T22:02:52.085Z,9.50
2022-10-19T22:05:40.510Z,9.88
2022-10-19T22:08:28.920Z,9.65
2022-10-19T22:11:17.476Z,9.93
2022-10-19T22:14:06.178Z,10.02
2022-10-19T22:16:54.469Z,10.15
2022-10-19T22:19:44.122Z,9.85
2022-10-19T22:22:32.665Z,9.45
2022-10-19T22:25:21.152Z,9.55
2022-10-19T22:28:09.493Z,9.68
2022-10-19T22:30:59.485Z,10.05
2022-10-19T22:33:48.002Z,9.90
2022-10-19T22:36:37.939Z,10.07
2022-10-19T22:39:27.892Z,9.10
2022-10-19T22:42:16.429Z,10.13
2022-10-19T22:45:05.544Z,9.18
2022-10-19T22:47:53.817Z,9.45
2022-10-19T22:50:42.136Z,9.20
2022-10-19T22:53:31.761Z,9.25
2022-10-19T22:56:20.058Z,9.18
2022-10-19T22:59:09.134Z,8.88
2022-10-19T23:01:57.419Z,9.13
2022-10-19T23:04:45.733Z,9.13
2022-10-19T23:07:34.338Z,8.23
2022-10-19T23:10:24.437Z,7.85
2022-10-19T23:13:12.753Z,8.80
2022-10-19T23:16:01.108Z,8.70
2022-10-19T23:18:49.627Z,7.72
2022-10-19T23:21:37.953Z,7.60
2022-10-19T23:24:26.249Z,7.43
2022-10-19T23:27:16.134Z,7.78
2022-10-19T23:30:05.702Z,7.63
2022-10-19T23:32:53.970Z,7.18
2022-10-19T23:35:42.261Z,6.20
2022-10-19T23:38:30.581Z,6.28
2022-10-19T23:41:20.004Z,6.22
2022-10-19T23:44:10.935Z,6.30
2022-10-19T23:46:59.294Z,6.20
2022-10-19T23:49:47.703Z,6.10
2022-10-19T23:52:36.109Z,6.38
2022-10-19T23:55:24.474Z,6.60
2022-10-19T23:58:12.798Z,6.43
